createdAt,value
2018-04-24T00:00:33.411Z,43.43
2018-04-24T00:03:02.514Z,37.40
2018-04-24T00:05:31.575Z,37.43
2018-04-24T00:08:00.568Z,32.37
2018-04-24T00:10:28.873Z,36.63
2018-04-24T00:12:57.180Z,36.77
2018-04-24T00:15:25.605Z,38.03
2018-04-24T00:17:53.879Z,34.43
2018-04-24T00:20:22.213Z,33.23
2018-04-24T00:22:51.265Z,36.70
2018-04-24T00:25:19.525Z,33.53
2018-04-24T00:27:47.827Z,35.80
2018-04-24T00:30:16.875Z,30.97
2018-04-24T00:32:46.005Z,30.93
2018-04-24T00:35:14.260Z,31.23
2018-04-24T00:37:42.562Z,37.30
2018-04-24T00:40:10.863Z,31.47
2018-04-24T00:42:39.178Z,31.97
2018-04-24T00:45:07.455Z,35.03
2018-04-24T00:47:35.762Z,38.17
2018-04-24T00:50:04.033Z,31.67
2018-04-24T00:52:32.311Z,32.90
2018-04-24T00:55:00.618Z,30.73
2018-04-24T00:57:29.738Z,30.70
2018-04-24T00:59:58.035Z,30.47
2018-04-24T01:02:26.330Z,33.60
2018-04-24T01:04:54.607Z,31.33
2018-04-24T01:07:22.894Z,31.70
2018-04-24T01:09:51.222Z,32.67
2018-04-24T01:12:20.293Z,34.60
2018-04-24T01:14:48.565Z,32.30
2018-04-24T01:17:16.893Z,33.67
2018-04-24T01:19:45.990Z,33.77
2018-04-24T01:22:14.344Z,35.30
2018-04-24T01:24:42.627Z,43.47
2018-04-24T01:27:10.899Z,35.23
2018-04-24T01:29:39.198Z,43.17
2018-04-24T01:32:08.249Z,42.73
2018-04-24T01:34:36.558Z,39.17
2018-04-24T01:37:04.825Z,36.50
2018-04-24T01:39:33.116Z,34.07
2018-04-24T01:42:03.090Z,36.40
2018-04-24T01:44:31.390Z,31.67
2018-04-24T01:46:59.669Z,34.13
2018-04-24T01:49:27.994Z,35.27
2018-04-24T01:51:56.256Z,37.30
2018-04-24T01:54:25.320Z,36.57
2018-04-24T01:56:53.616Z,31.70
2018-04-24T01:59:21.874Z,35.30
2018-04-24T02:01:50.182Z,32.57
2018-04-24T02:04:19.224Z,33.40
2018-04-24T02:06:47.514Z,32.87
2018-04-24T02:09:16.226Z,33.27
2018-04-24T02:11:44.535Z,30.90
2018-04-24T02:14:13.699Z,34.13
2018-04-24T02:16:41.953Z,33.00
2018-04-24T02:19:10.248Z,31.10
2018-04-24T02:21:38.519Z,35.53
2018-04-24T02:24:06.886Z,34.80
2018-04-24T02:26:35.247Z,31.40
2018-04-24T02:29:03.605Z,33.70
2018-04-24T02:31:31.906Z,39.20
2018-04-24T02:34:00.158Z,34.20
2018-04-24T02:36:28.478Z,32.90
2018-04-24T02:38:56.776Z,33.63
2018-04-24T02:41:25.069Z,36.57
2018-04-24T02:43:53.328Z,35.23
2018-04-24T02:46:21.629Z,31.43
2018-04-24T02:48:50.680Z,35.07
2018-04-24T02:51:18.974Z,30.93
2018-04-24T02:53:47.252Z,35.50
2018-04-24T02:56:15.798Z,36.60
2018-04-24T02:58:44.227Z,35.70
2018-04-24T03:01:12.504Z,35.07
2018-04-24T03:03:40.794Z,37.63
2018-04-24T03:06:09.074Z,39.33
2018-04-24T03:08:38.155Z,38.57
2018-04-24T03:11:06.410Z,34.50
2018-04-24T03:13:34.722Z,33.60
2018-04-24T03:16:03.022Z,37.50
2018-04-24T03:18:32.083Z,36.93
2018-04-24T03:21:00.329Z,37.70
2018-04-24T03:23:28.650Z,40.40
2018-04-24T03:25:56.926Z,39.73
2018-04-24T03:28:25.208Z,40.33
2018-04-24T03:30:53.498Z,41.73
2018-04-24T03:33:22.545Z,35.53
2018-04-24T03:35:50.841Z,32.77
2018-04-24T03:38:19.090Z,47.30
2018-04-24T03:40:47.385Z,35.10
2018-04-24T03:43:15.709Z,46.40
2018-04-24T03:45:44.777Z,40.53
2018-04-24T03:48:13.064Z,42.43
2018-04-24T03:50:41.334Z,42.83
2018-04-24T03:53:09.655Z,44.43
2018-04-24T03:55:37.936Z,45.27
2018-04-24T03:58:06.250Z,50.87
2018-04-24T04:00:34.509Z,44.17
2018-04-24T04:03:02.805Z,42.63
2018-04-24T04:05:31.057Z,46.80
2018-04-24T04:07:59.369Z,45.80
2018-04-24T04:10:27.646Z,43.87
2018-04-24T04:12:55.921Z,48.27
2018-04-24T04:15:24.345Z,45.00
2018-04-24T04:18:04.421Z,49.30
2018-04-24T04:20:44.500Z,47.33
2018-04-24T04:23:26.171Z,53.77
2018-04-24T04:25:55.330Z,44.90
2018-04-24T04:28:23.620Z,41.97
2018-04-24T04:30:52.698Z,53.07
2018-04-24T04:33:20.974Z,51.07
2018-04-24T04:35:49.295Z,55.07
2018-04-24T04:38:17.645Z,47.17
2018-04-24T04:40:45.926Z,44.27
2018-04-24T04:43:15.006Z,44.90
2018-04-24T04:45:44.062Z,49.17
2018-04-24T04:48:12.370Z,47.07
2018-04-24T04:50:40.655Z,42.93
2018-04-24T04:53:08.991Z,39.07
2018-04-24T04:55:37.246Z,40.03
2018-04-24T04:58:05.521Z,46.70
2018-04-24T05:00:33.819Z,46.30
2018-04-24T05:03:02.071Z,45.63
2018-04-24T05:05:31.144Z,44.50
2018-04-24T05:08:00.200Z,44.87
2018-04-24T05:10:29.041Z,40.53
2018-04-24T05:12:57.330Z,41.00
2018-04-24T05:15:26.389Z,40.43
2018-04-24T05:17:54.684Z,41.23
2018-04-24T05:20:22.969Z,37.87
2018-04-24T05:22:51.345Z,36.63
2018-04-24T05:25:19.632Z,36.77
2018-04-24T05:27:48.820Z,39.53
2018-04-24T05:30:17.133Z,34.90
2018-04-24T05:32:45.413Z,32.67
2018-04-24T05:35:14.482Z,38.67
2018-04-24T05:37:43.557Z,37.53
2018-04-24T05:40:12.611Z,33.07
2018-04-24T05:42:40.949Z,35.10
2018-04-24T05:45:09.266Z,30.80
2018-04-24T05:47:37.543Z,33.80
2018-04-24T05:50:05.882Z,32.93
2018-04-24T05:52:34.171Z,31.47
2018-04-24T05:55:03.225Z,31.40
2018-04-24T05:57:31.561Z,32.70
2018-04-24T05:59:59.889Z,31.40
2018-04-24T06:02:28.279Z,30.47
2018-04-24T06:04:56.606Z,31.47
2018-04-24T06:07:24.933Z,28.07
2018-04-24T06:09:53.232Z,40.20
2018-04-24T06:12:21.527Z,29.27
2018-04-24T06:14:49.850Z,26.67
2018-04-24T06:17:18.118Z,28.90
2018-04-24T06:19:46.421Z,25.00
2018-04-24T06:22:15.465Z,23.83
2018-04-24T06:24:43.790Z,25.57
2018-04-24T06:27:12.054Z,23.57
2018-04-24T06:29:40.345Z,24.33
2018-04-24T06:32:08.718Z,23.73
2018-04-24T06:34:37.040Z,22.53
2018-04-24T06:37:05.355Z,27.47
2018-04-24T06:39:33.638Z,22.03
2018-04-24T06:42:01.941Z,22.83
2018-04-24T06:44:30.233Z,24.67
2018-04-24T06:46:58.585Z,21.07
2018-04-24T06:49:26.858Z,22.50
2018-04-24T06:51:55.134Z,22.40
2018-04-24T06:54:23.559Z,26.87
2018-04-24T06:56:51.832Z,22.43
2018-04-24T06:59:20.181Z,23.17
2018-04-24T07:01:48.546Z,23.40
2018-04-24T07:04:16.853Z,25.20
2018-04-24T07:06:45.125Z,23.03
2018-04-24T07:09:13.397Z,22.37
2018-04-24T07:11:41.679Z,24.97
2018-04-24T07:14:09.980Z,29.97
2018-04-24T07:16:38.305Z,24.83
2018-04-24T07:19:06.589Z,23.83
2018-04-24T07:21:34.877Z,24.00
2018-04-24T07:24:03.138Z,22.13
2018-04-24T07:26:31.448Z,24.53
2018-04-24T07:28:59.733Z,24.73
2018-04-24T07:31:28.009Z,28.23
2018-04-24T07:33:56.303Z,25.93
2018-04-24T07:36:24.589Z,27.50
2018-04-24T07:38:52.901Z,25.20
2018-04-24T07:41:21.188Z,26.50
2018-04-24T07:43:49.480Z,26.17
2018-04-24T07:46:17.753Z,26.63
2018-04-24T07:48:46.096Z,25.60
2018-04-24T07:51:15.133Z,24.40
2018-04-24T07:53:43.410Z,27.43
2018-04-24T07:56:11.715Z,23.80
2018-04-24T07:58:40.039Z,24.53
2018-04-24T08:01:08.323Z,24.87
2018-04-24T08:03:36.634Z,24.33
2018-04-24T08:06:04.924Z,22.90
2018-04-24T08:08:33.200Z,20.27
2018-04-24T08:11:01.493Z,23.13
2018-04-24T08:13:29.825Z,16.90
2018-04-24T08:15:58.112Z,20.43
2018-04-24T08:18:26.501Z,20.37
2018-04-24T08:20:54.771Z,19.00
2018-04-24T08:23:23.059Z,17.60
2018-04-24T08:25:51.363Z,17.43
2018-04-24T08:28:19.686Z,16.63
2018-04-24T08:30:47.983Z,18.00
2018-04-24T08:33:16.299Z,18.03
2018-04-24T08:35:44.602Z,17.63
2018-04-24T08:38:13.652Z,15.70
2018-04-24T08:40:41.970Z,18.30
2018-04-24T08:43:11.024Z,20.37
2018-04-24T08:45:39.363Z,19.60
2018-04-24T08:48:07.690Z,19.77
2018-04-24T08:50:35.969Z,22.77
2018-04-24T08:53:04.321Z,22.93
2018-04-24T08:55:32.616Z,19.57
2018-04-24T08:58:00.962Z,17.83
2018-04-24T09:00:29.236Z,15.60
2018-04-24T09:02:58.325Z,20.43
2018-04-24T09:05:27.372Z,15.23
2018-04-24T09:07:55.710Z,14.63
2018-04-24T09:10:23.984Z,14.97
2018-04-24T09:12:52.261Z,17.67
2018-04-24T09:15:20.560Z,16.17
2018-04-24T09:17:48.844Z,15.40
2018-04-24T09:20:17.141Z,15.23
2018-04-24T09:22:45.501Z,14.77
2018-04-24T09:25:13.817Z,15.57
2018-04-24T09:27:42.127Z,15.27
2018-04-24T09:30:10.952Z,17.10
2018-04-24T09:32:39.250Z,14.37
2018-04-24T09:35:08.302Z,15.47
2018-04-24T09:37:36.632Z,13.83
2018-04-24T09:40:04.917Z,14.23
2018-04-24T09:42:33.246Z,14.07
2018-04-24T09:45:01.583Z,15.97
2018-04-24T09:47:29.911Z,15.17
2018-04-24T09:49:58.219Z,14.53
2018-04-24T09:52:26.522Z,12.53
2018-04-24T09:54:54.808Z,15.53
2018-04-24T09:57:23.125Z,16.20
2018-04-24T09:59:51.424Z,14.10
2018-04-24T10:02:19.720Z,10.27
2018-04-24T10:04:47.974Z,12.33
2018-04-24T10:07:16.247Z,10.30
2018-04-24T10:09:44.602Z,9.77
2018-04-24T10:12:13.633Z,10.40
2018-04-24T10:14:41.951Z,10.70
2018-04-24T10:17:11.084Z,11.97
2018-04-24T10:19:39.393Z,10.30
2018-04-24T10:22:07.695Z,10.60
2018-04-24T10:24:35.960Z,13.43
2018-04-24T10:27:04.242Z,10.33
2018-04-24T10:29:32.617Z,10.50
2018-04-24T10:32:00.915Z,10.77
2018-04-24T10:34:29.179Z,11.60
2018-04-24T10:36:58.215Z,9.73
2018-04-24T10:39:27.293Z,9.50
2018-04-24T10:41:56.335Z,8.50
2018-04-24T10:44:24.620Z,9.63
2018-04-24T10:46:52.896Z,11.53
2018-04-24T10:49:21.194Z,10.60
2018-04-24T10:51:49.578Z,9.53
2018-04-24T10:54:18.558Z,9.83
2018-04-24T10:56:46.841Z,10.73
2018-04-24T10:59:15.163Z,9.73
2018-04-24T11:01:43.491Z,9.63
2018-04-24T11:04:11.804Z,8.00
2018-04-24T11:06:40.138Z,8.10
2018-04-24T11:09:08.395Z,10.10
2018-04-24T11:11:36.699Z,10.00
2018-04-24T11:14:04.957Z,8.53
2018-04-24T11:16:33.314Z,9.20
2018-04-24T11:19:02.337Z,7.90
2018-04-24T11:21:30.695Z,9.73
2018-04-24T11:23:58.993Z,9.50
2018-04-24T11:26:27.311Z,6.67
2018-04-24T11:28:55.655Z,6.03
2018-04-24T11:31:23.913Z,6.60
2018-04-24T11:33:52.275Z,5.17
2018-04-24T11:36:21.294Z,5.60
2018-04-24T11:38:49.593Z,5.83
2018-04-24T11:41:17.946Z,5.70
2018-04-24T11:43:46.229Z,6.00
2018-04-24T11:46:15.259Z,9.40
2018-04-24T11:48:43.523Z,5.53
2018-04-24T11:51:11.847Z,7.30
2018-04-24T11:53:40.883Z,8.33
2018-04-24T11:56:09.181Z,6.53
2018-04-24T11:58:37.486Z,5.33
2018-04-24T12:01:05.817Z,8.50
2018-04-24T12:03:34.089Z,5.23
2018-04-24T12:06:03.184Z,5.23
2018-04-24T12:08:31.438Z,4.80
2018-04-24T12:11:00.515Z,3.83
2018-04-24T12:13:28.791Z,4.53
2018-04-24T12:15:57.072Z,5.90
2018-04-24T12:18:25.354Z,3.77
2018-04-24T12:20:54.455Z,4.33
2018-04-24T12:23:23.542Z,5.47
2018-04-24T12:25:51.812Z,6.20
2018-04-24T12:28:20.119Z,5.00
2018-04-24T12:30:49.150Z,4.93
2018-04-24T12:33:17.430Z,3.80
2018-04-24T12:35:45.752Z,4.10
2018-04-24T12:38:14.035Z,5.17
2018-04-24T12:40:42.333Z,4.67
2018-04-24T12:43:10.624Z,5.43
2018-04-24T12:45:38.963Z,5.03
2018-04-24T12:48:07.213Z,5.27
2018-04-24T12:50:35.514Z,3.87
2018-04-24T12:53:03.789Z,3.60
2018-04-24T12:55:32.045Z,4.23
2018-04-24T12:58:00.326Z,6.63
2018-04-24T13:00:28.596Z,4.17
2018-04-24T13:02:56.895Z,4.50
2018-04-24T13:05:25.151Z,3.60
2018-04-24T13:07:53.458Z,5.67
2018-04-24T13:10:21.806Z,4.20
2018-04-24T13:12:50.063Z,4.37
2018-04-24T13:15:18.362Z,4.13
2018-04-24T13:17:46.681Z,5.70
2018-04-24T13:20:15.080Z,6.20
2018-04-24T13:22:43.333Z,4.13
2018-04-24T13:25:11.625Z,4.20
2018-04-24T13:27:39.952Z,4.90
2018-04-24T13:30:08.254Z,5.80
2018-04-24T13:32:36.502Z,4.80
2018-04-24T13:35:04.757Z,3.67
2018-04-24T13:37:33.055Z,3.80
2018-04-24T13:40:01.400Z,7.80
2018-04-24T13:42:30.529Z,3.97
2018-04-24T13:44:59.023Z,4.07
2018-04-24T13:47:28.292Z,3.60
2018-04-24T13:49:56.629Z,3.50
2018-04-24T13:52:25.868Z,3.37
2018-04-24T13:54:54.250Z,3.60
2018-04-24T13:57:23.392Z,3.23
2018-04-24T13:59:52.728Z,3.63
2018-04-24T14:02:21.046Z,5.60
2018-04-24T14:04:49.422Z,3.60
2018-04-24T14:07:17.955Z,3.27
2018-04-24T14:09:47.122Z,3.63
2018-04-24T14:12:15.583Z,4.90
2018-04-24T14:14:43.862Z,4.43
2018-04-24T14:17:14.054Z,3.73
2018-04-24T14:19:43.367Z,3.50
2018-04-24T14:22:11.811Z,3.67
2018-04-24T14:24:42.191Z,3.90
2018-04-24T14:27:10.588Z,3.00
2018-04-24T14:29:39.035Z,4.10
2018-04-24T14:32:07.783Z,3.47
2018-04-24T14:34:36.318Z,4.90
2018-04-24T14:37:04.680Z,3.53
2018-04-24T14:39:33.264Z,3.60
2018-04-24T14:42:02.506Z,5.13
2018-04-24T14:44:30.945Z,3.20
2018-04-24T14:47:00.032Z,2.53
2018-04-24T14:49:28.570Z,2.53
2018-04-24T14:51:57.392Z,2.50
2018-04-24T14:54:25.912Z,2.33
2018-04-24T14:56:55.002Z,4.87
2018-04-24T14:59:23.486Z,2.67
2018-04-24T15:01:51.965Z,2.53
2018-04-24T15:04:20.408Z,2.67
2018-04-24T15:06:48.870Z,4.50
2018-04-24T15:09:17.235Z,3.53
2018-04-24T15:11:46.364Z,3.20
2018-04-24T15:14:14.765Z,2.30
2018-04-24T15:16:43.130Z,3.33
2018-04-24T15:19:11.888Z,2.60
2018-04-24T15:21:41.148Z,4.60
2018-04-24T15:24:10.395Z,2.83
2018-04-24T15:26:38.754Z,2.57
2018-04-24T15:29:07.198Z,4.70
2018-04-24T15:31:37.800Z,2.90
2018-04-24T15:34:07.847Z,3.43
2018-04-24T15:36:36.650Z,4.63
2018-04-24T15:39:06.117Z,3.73
2018-04-24T15:41:34.539Z,4.07
2018-04-24T15:44:03.083Z,2.70
2018-04-24T15:46:31.664Z,6.23
2018-04-24T15:49:00.297Z,4.43
2018-04-24T15:51:28.668Z,2.77
2018-04-24T15:53:57.104Z,2.60
2018-04-24T15:56:25.396Z,3.47
2018-04-24T15:58:53.710Z,3.50
2018-04-24T16:01:22.014Z,5.43
2018-04-24T16:03:50.358Z,2.93
2018-04-24T16:06:18.771Z,2.80
2018-04-24T16:08:47.800Z,2.70
2018-04-24T16:11:16.096Z,5.53
2018-04-24T16:13:44.469Z,3.40
2018-04-24T16:16:12.710Z,2.77
2018-04-24T16:18:41.787Z,3.40
2018-04-24T16:21:10.168Z,3.87
2018-04-24T16:23:38.580Z,3.60
2018-04-24T16:26:06.895Z,5.53
2018-04-24T16:28:36.153Z,4.57
2018-04-24T16:31:04.501Z,2.97
2018-04-24T16:33:32.965Z,5.17
2018-04-24T16:36:03.520Z,6.70
2018-04-24T16:38:32.731Z,4.20
2018-04-24T16:41:03.224Z,4.17
2018-04-24T16:43:31.502Z,4.77
2018-04-24T16:46:02.370Z,3.70
2018-04-24T16:48:30.778Z,5.73
2018-04-24T16:50:59.198Z,6.20
2018-04-24T16:53:27.550Z,5.20
2018-04-24T16:55:55.883Z,10.17
2018-04-24T16:58:24.185Z,3.77
2018-04-24T17:00:52.656Z,7.13
2018-04-24T17:03:20.942Z,5.20
2018-04-24T17:05:49.291Z,7.93
2018-04-24T17:08:17.685Z,6.73
2018-04-24T17:10:45.986Z,5.43
2018-04-24T17:13:14.329Z,4.28
2018-04-24T17:15:42.788Z,5.23
2018-04-24T17:18:11.117Z,4.47
2018-04-24T17:20:40.287Z,4.37
2018-04-24T17:23:09.737Z,7.10
2018-04-24T17:25:38.101Z,7.23
2018-04-24T17:28:06.474Z,6.50
2018-04-24T17:30:35.767Z,4.23
2018-04-24T17:33:04.112Z,3.70
2018-04-24T17:35:32.436Z,4.27
2018-04-24T17:38:00.874Z,4.17
2018-04-24T17:40:29.278Z,3.30
2018-04-24T17:42:57.615Z,3.37
2018-04-24T17:45:25.909Z,4.03
2018-04-24T17:47:54.305Z,7.93
2018-04-24T17:50:22.661Z,7.23
2018-04-24T17:52:51.226Z,5.03
2018-04-24T17:55:19.641Z,5.80
2018-04-24T17:57:48.123Z,6.03
2018-04-24T18:00:16.829Z,6.37
2018-04-24T18:02:45.141Z,4.00
2018-04-24T18:05:13.453Z,5.90
2018-04-24T18:07:41.866Z,9.97
2018-04-24T18:10:10.355Z,20.40
2018-04-24T18:12:39.006Z,7.43
2018-04-24T18:15:08.379Z,5.53
2018-04-24T18:17:36.702Z,6.07
2018-04-24T18:20:05.152Z,6.80
2018-04-24T18:22:34.115Z,7.17
2018-04-24T18:25:03.316Z,7.23
2018-04-24T18:27:32.529Z,8.63
2018-04-24T18:30:01.774Z,10.27
2018-04-24T18:32:35.850Z,9.83
2018-04-24T18:35:04.831Z,8.30
2018-04-24T18:37:34.904Z,7.80
2018-04-24T18:40:03.261Z,8.10
2018-04-24T18:42:31.647Z,12.63
2018-04-24T18:44:59.926Z,6.30
2018-04-24T18:47:28.250Z,5.40
2018-04-24T18:49:56.518Z,7.47
2018-04-24T18:52:24.856Z,11.80
2018-04-24T18:54:53.570Z,13.40
2018-04-24T18:57:23.061Z,14.17
2018-04-24T18:59:54.603Z,17.60
2018-04-24T19:02:24.220Z,15.63
2018-04-24T19:04:52.901Z,26.17
2018-04-24T19:07:22.350Z,17.10
2018-04-24T19:09:51.027Z,103.73
2018-04-24T19:12:20.141Z,65.53
2018-04-24T19:14:48.454Z,68.67
2018-04-24T19:17:16.841Z,38.40
2018-04-24T19:19:50.477Z,10.10
2018-04-24T19:22:18.832Z,12.23
2018-04-24T19:24:52.752Z,10.60
2018-04-24T19:27:21.337Z,13.23
2018-04-24T19:29:49.722Z,10.00
2018-04-24T19:32:23.545Z,9.50
2018-04-24T19:34:51.869Z,10.37
2018-04-24T19:37:21.271Z,10.03
2018-04-24T19:39:56.060Z,7.80
2018-04-24T19:42:24.741Z,7.67
2018-04-24T19:44:53.089Z,9.43
2018-04-24T19:47:21.421Z,8.30
2018-04-24T19:49:55.434Z,7.83
2018-04-24T19:52:23.827Z,8.90
2018-04-24T19:54:57.718Z,10.90
2018-04-24T19:57:26.135Z,8.30
2018-04-24T19:59:54.429Z,9.20
2018-04-24T20:02:23.574Z,12.33
2018-04-24T20:04:52.012Z,14.63
2018-04-24T20:07:20.377Z,16.73
2018-04-24T20:09:48.723Z,10.47
2018-04-24T20:12:17.830Z,11.30
2018-04-24T20:14:46.140Z,8.47
2018-04-24T20:17:15.470Z,10.80
2018-04-24T20:19:43.761Z,9.70
2018-04-24T20:22:12.224Z,10.33
2018-04-24T20:24:40.523Z,10.37
2018-04-24T20:27:08.844Z,9.17
2018-04-24T20:29:37.131Z,8.80
2018-04-24T20:32:05.386Z,10.17
2018-04-24T20:34:33.708Z,10.83
2018-04-24T20:37:02.014Z,9.23
2018-04-24T20:39:30.371Z,10.53
2018-04-24T20:41:58.635Z,8.43
2018-04-24T20:44:26.989Z,8.13
2018-04-24T20:46:55.261Z,9.10
2018-04-24T20:49:24.301Z,9.07
2018-04-24T20:51:52.648Z,8.60
2018-04-24T20:54:20.952Z,7.17
2018-04-24T20:56:49.332Z,9.20
2018-04-24T20:59:17.628Z,6.20
2018-04-24T21:01:45.936Z,11.40
2018-04-24T21:04:14.218Z,12.23
2018-04-24T21:06:42.502Z,10.60
2018-04-24T21:09:10.815Z,8.40
2018-04-24T21:11:39.104Z,10.50
2018-04-24T21:14:08.210Z,12.50
2018-04-24T21:16:36.528Z,10.03
2018-04-24T21:19:05.622Z,8.40
2018-04-24T21:21:34.662Z,8.67
2018-04-24T21:24:02.974Z,15.57
2018-04-24T21:26:31.277Z,13.40
2018-04-24T21:29:00.304Z,10.10
2018-04-24T21:31:28.617Z,9.63
2018-04-24T21:33:56.875Z,10.47
2018-04-24T21:36:25.193Z,8.93
2018-04-24T21:38:53.474Z,8.20
2018-04-24T21:41:22.548Z,9.30
2018-04-24T21:43:50.837Z,10.00
2018-04-24T21:46:19.871Z,9.17
2018-04-24T21:48:48.177Z,7.30
2018-04-24T21:51:16.443Z,11.93
2018-04-24T21:53:44.771Z,10.63
2018-04-24T21:56:13.037Z,11.20
2018-04-24T21:58:41.338Z,7.97
2018-04-24T22:01:10.347Z,7.97
2018-04-24T22:03:38.652Z,6.77
2018-04-24T22:06:06.933Z,9.83
2018-04-24T22:08:35.206Z,10.53
2018-04-24T22:11:03.523Z,7.93
2018-04-24T22:13:31.818Z,6.93
2018-04-24T22:16:03.411Z,9.37
2018-04-24T22:18:31.701Z,9.20
2018-04-24T22:21:00.075Z,8.93
2018-04-24T22:23:28.308Z,7.87
2018-04-24T22:25:57.388Z,8.47
2018-04-24T22:28:25.689Z,8.57
2018-04-24T22:30:54.722Z,7.90
2018-04-24T22:33:22.992Z,7.43
2018-04-24T22:35:51.296Z,9.67
2018-04-24T22:38:19.559Z,8.03
2018-04-24T22:40:47.879Z,8.07
2018-04-24T22:43:16.157Z,7.43
2018-04-24T22:45:44.433Z,8.50
2018-04-24T22:48:12.744Z,7.83
2018-04-24T22:50:41.770Z,9.67
2018-04-24T22:53:10.076Z,11.33
2018-04-24T22:55:38.346Z,8.43
2018-04-24T22:58:06.661Z,11.13
2018-04-24T23:00:34.923Z,10.17
2018-04-24T23:03:03.190Z,9.10
2018-04-24T23:05:31.564Z,8.87
2018-04-24T23:07:59.815Z,9.30
2018-04-24T23:10:40.014Z,10.60
2018-04-24T23:13:26.822Z,11.60
2018-04-24T23:16:13.082Z,10.97
2018-04-24T23:18:59.046Z,9.67
2018-04-24T23:21:32.926Z,8.47
2018-04-24T23:24:01.201Z,11.73
2018-04-24T23:26:29.483Z,8.50
2018-04-24T23:28:57.782Z,8.87
2018-04-24T23:31:26.036Z,8.20
2018-04-24T23:33:54.342Z,13.33
2018-04-24T23:36:22.600Z,8.53
2018-04-24T23:38:50.934Z,9.27
2018-04-24T23:41:19.181Z,9.10
2018-04-24T23:43:47.442Z,11.40
2018-04-24T23:46:16.730Z,10.03
2018-04-24T23:48:45.006Z,11.10
2018-04-24T23:51:13.317Z,7.97
2018-04-24T23:53:41.586Z,7.90
2018-04-24T23:56:09.851Z,9.53
2018-04-24T23:58:38.913Z,9.90
